Time;durP1;ratioP1;P1;durP2;ratioP2;P2;SDS_P1;SDS_P2;PMS_P1;PMS_P2;Temp;Humidity;BMP_temperature;BMP_pressure;BME280_temperature;BME280_humidity;BME280_pressure;Samples;Min_cycle;Max_cycle;Signal;HPM_P1;HPM_P2
2021/10/23 00:00:06;;;;;;;9.68;2.53;;;6.00;94.90;;;;;;6278990;22;20381;-73
2021/10/23 00:02:32;;;;;;;6.55;2.40;;;6.00;95.00;;;;;;6279433;22;20004;-72
2021/10/23 00:04:57;;;;;;;8.20;2.38;;;6.00;95.00;;;;;;6279387;22;20003;-73
2021/10/23 00:07:26;;;;;;;7.95;2.22;;;6.00;95.20;;;;;;6279119;22;20000;-73
2021/10/23 00:09:51;;;;;;;8.05;2.55;;;6.00;95.00;;;;;;6279359;22;20265;-72
2021/10/23 00:12:17;;;;;;;6.97;1.95;;;6.00;94.80;;;;;;6279583;22;20027;-72
2021/10/23 00:14:43;;;;;;;10.85;2.33;;;6.00;94.70;;;;;;6280973;22;20007;-72
2021/10/23 00:17:08;;;;;;;7.18;2.35;;;6.00;94.40;;;;;;6280827;22;20010;-73
2021/10/23 00:19:34;;;;;;;8.70;2.50;;;6.00;94.30;;;;;;6281178;22;19996;-72
2021/10/23 00:22:00;;;;;;;5.97;2.15;;;6.00;94.60;;;;;;6281061;22;20035;-73
2021/10/23 00:24:26;;;;;;;5.90;2.00;;;5.90;94.90;;;;;;6280859;22;20387;-73
2021/10/23 00:26:51;;;;;;;8.40;1.92;;;5.90;94.50;;;;;;6279451;22;20254;-73
2021/10/23 00:29:17;;;;;;;10.43;3.00;;;5.90;94.50;;;;;;6281055;22;20003;-73
2021/10/23 00:31:42;;;;;;;6.90;2.20;;;5.90;94.80;;;;;;6280834;22;20000;-72
2021/10/23 00:34:08;;;;;;;6.00;2.50;;;5.90;94.90;;;;;;6281180;22;19999;-72
2021/10/23 00:36:34;;;;;;;9.27;2.17;;;5.90;95.00;;;;;;6280841;22;20007;-73
2021/10/23 00:39:00;;;;;;;7.88;2.40;;;5.90;94.90;;;;;;6280812;22;20025;-73
2021/10/23 00:41:27;;;;;;;8.38;2.38;;;5.90;94.60;;;;;;6279609;22;20006;-73
2021/10/23 00:43:52;;;;;;;3.75;1.95;;;5.90;94.70;;;;;;6280709;22;20000;-71
2021/10/23 00:46:18;;;;;;;10.65;2.13;;;5.90;94.60;;;;;;6281086;22;20373;-71
2021/10/23 00:48:45;;;;;;;9.85;2.30;;;5.90;94.80;;;;;;6280741;22;20246;-71
2021/10/23 00:51:15;;;;;;;6.30;2.33;;;5.90;95.00;;;;;;6280884;22;20004;-71
2021/10/23 00:53:41;;;;;;;7.70;2.00;;;5.80;95.30;;;;;;6280623;22;20057;-70
2021/10/23 00:56:07;;;;;;;5.13;2.25;;;5.80;95.70;;;;;;6279037;22;19999;-72
2021/10/23 00:58:36;;;;;;;10.73;2.50;;;5.80;95.70;;;;;;6280624;22;20008;-73
2021/10/23 01:01:02;;;;;;;7.05;2.30;;;5.80;96.10;;;;;;6280791;22;19995;-72
2021/10/23 01:03:27;;;;;;;5.90;1.88;;;5.90;96.60;;;;;;6253772;22;19996;-72
2021/10/23 01:05:54;;;;;;;7.32;2.13;;;5.90;96.40;;;;;;6280994;22;20000;-72
2021/10/23 01:08:20;;;;;;;8.30;2.35;;;5.90;96.70;;;;;;6280204;22;20010;-73
2021/10/23 01:10:50;;;;;;;5.30;1.90;;;5.90;96.70;;;;;;6280889;22;19996;-72
2021/10/23 01:13:15;;;;;;;13.32;2.72;;;5.90;96.80;;;;;;6278910;22;19999;-73
2021/10/23 01:15:41;;;;;;;11.05;2.45;;;5.90;97.00;;;;;;6280792;22;20054;-73
2021/10/23 01:18:09;;;;;;;7.32;1.95;;;5.80;97.20;;;;;;6280176;22;20015;-72
2021/10/23 01:20:36;;;;;;;8.15;2.58;;;5.80;97.30;;;;;;6253614;22;20388;-73
2021/10/23 01:23:02;;;;;;;7.15;2.00;;;5.80;97.30;;;;;;6279582;22;19996;-72
2021/10/23 01:25:30;;;;;;;8.73;2.13;;;5.90;97.50;;;;;;6253257;22;20003;-72
2021/10/23 01:28:00;;;;;;;7.45;2.45;;;5.90;97.30;;;;;;6279102;22;20003;-73
2021/10/23 01:30:26;;;;;;;10.40;2.50;;;5.90;97.30;;;;;;6280182;22;20007;-73
2021/10/23 01:32:53;;;;;;;7.60;2.20;;;5.90;97.00;;;;;;6253592;22;20399;-73
2021/10/23 01:35:20;;;;;;;6.22;2.20;;;5.90;96.70;;;;;;6253409;22;20361;-72
2021/10/23 01:37:48;;;;;;;10.00;2.38;;;5.90;96.80;;;;;;6280249;22;20399;-73
2021/10/23 01:40:27;;;;;;;8.50;2.50;;;5.80;96.90;;;;;;6252722;22;20004;-73
2021/10/23 01:42:54;;;;;;;8.80;2.60;;;5.80;97.00;;;;;;6252101;22;20003;-73
2021/10/23 01:45:20;;;;;;;6.75;2.33;;;5.80;97.20;;;;;;6253289;22;20003;-72
2021/10/23 01:47:45;;;;;;;6.60;2.25;;;5.80;97.30;;;;;;6280102;22;20053;-72
2021/10/23 01:50:20;;;;;;;8.80;2.30;;;5.70;97.20;;;;;;6280114;22;20000;-71
2021/10/23 01:52:47;;;;;;;9.00;2.13;;;5.70;97.00;;;;;;6280032;22;20000;-71
2021/10/23 01:55:14;;;;;;;7.32;1.90;;;5.70;97.10;;;;;;6280078;22;20030;-73
2021/10/23 01:57:40;;;;;;;7.53;2.20;;;5.70;97.20;;;;;;6251921;22;20007;-72
2021/10/23 02:00:10;;;;;;;5.57;2.17;;;5.70;97.10;;;;;;6280000;22;20007;-72
2021/10/23 02:02:36;;;;;;;6.32;1.98;;;5.70;97.10;;;;;;6280049;22;19996;-72
2021/10/23 02:05:05;;;;;;;7.20;2.13;;;5.80;97.40;;;;;;6279964;22;20022;-72
2021/10/23 02:07:31;;;;;;;7.10;2.10;;;5.80;97.40;;;;;;6280179;22;20417;-73
2021/10/23 02:09:56;;;;;;;7.60;2.13;;;5.80;97.00;;;;;;6279895;22;20027;-72
2021/10/23 02:12:22;;;;;;;12.07;2.20;;;5.70;97.20;;;;;;6278432;22;20007;-73
2021/10/23 02:14:48;;;;;;;7.07;2.13;;;5.60;97.70;;;;;;6280244;22;20000;-73
2021/10/23 02:17:14;;;;;;;6.43;2.00;;;5.60;97.90;;;;;;6279609;22;20015;-72
2021/10/23 02:19:39;;;;;;;7.25;2.30;;;5.60;97.90;;;;;;6279974;22;20373;-73
2021/10/23 02:22:07;;;;;;;11.70;2.47;;;5.70;97.40;;;;;;6279944;22;20132;-72
2021/10/23 02:24:33;;;;;;;7.90;2.00;;;5.70;97.10;;;;;;6279545;22;20015;-73
2021/10/23 02:26:59;;;;;;;7.38;2.20;;;5.70;97.20;;;;;;6278670;22;20003;-73
2021/10/23 02:29:24;;;;;;;12.65;2.42;;;5.70;97.10;;;;;;6279523;22;19999;-73
2021/10/23 02:31:51;;;;;;;7.72;2.20;;;5.70;97.10;;;;;;6279935;22;20004;-73
2021/10/23 02:34:17;;;;;;;7.50;1.85;;;5.70;97.30;;;;;;6279463;22;20353;-72
2021/10/23 02:36:42;;;;;;;7.13;2.13;;;5.80;97.60;;;;;;6280029;22;19999;-72
2021/10/23 02:39:08;;;;;;;5.63;2.08;;;5.80;97.40;;;;;;6279603;22;20010;-71
2021/10/23 02:41:34;;;;;;;8.52;2.10;;;5.80;97.50;;;;;;6278620;22;20026;-73
2021/10/23 02:44:00;;;;;;;5.32;2.10;;;5.70;97.40;;;;;;6279353;22;20054;-71
2021/10/23 02:46:26;;;;;;;5.43;2.10;;;5.70;97.60;;;;;;6279565;22;20292;-72
2021/10/23 02:48:51;;;;;;;9.35;2.55;;;5.70;97.80;;;;;;6279605;22;20003;-72
2021/10/23 02:51:17;;;;;;;9.80;3.08;;;5.70;97.80;;;;;;6279780;22;19995;-73
2021/10/23 02:53:43;;;;;;;7.38;2.10;;;5.70;97.60;;;;;;6279486;22;20125;-72
2021/10/23 02:56:08;;;;;;;6.70;1.90;;;5.70;97.80;;;;;;6278224;22;20031;-72
2021/10/23 02:58:34;;;;;;;5.63;2.53;;;5.70;97.50;;;;;;6279839;22;20409;-73
2021/10/23 03:01:00;;;;;;;11.38;2.72;;;5.70;97.60;;;;;;6279225;22;20003;-72
2021/10/23 03:03:25;;;;;;;7.22;2.20;;;5.80;97.60;;;;;;6279885;22;20000;-71
2021/10/23 03:05:51;;;;;;;6.43;2.58;;;5.80;97.60;;;;;;6279445;22;20000;-73
2021/10/23 03:08:17;;;;;;;8.60;2.10;;;5.70;97.90;;;;;;6279818;22;20003;-72
2021/10/23 03:10:43;;;;;;;5.72;2.30;;;5.70;97.70;;;;;;6279309;22;19999;-72
2021/10/23 03:13:09;;;;;;;7.82;2.17;;;5.70;97.60;;;;;;6251391;22;20377;-72
2021/10/23 03:15:35;;;;;;;9.30;2.42;;;5.70;98.00;;;;;;6279486;22;20027;-72
2021/10/23 03:18:01;;;;;;;5.60;2.00;;;5.70;98.00;;;;;;6279298;22;20065;-73
2021/10/23 03:20:26;;;;;;;8.73;2.65;;;5.60;98.00;;;;;;6279262;22;20266;-72
2021/10/23 03:22:52;;;;;;;6.35;2.00;;;5.60;98.00;;;;;;6279682;22;20003;-72
2021/10/23 03:25:18;;;;;;;7.55;2.05;;;5.60;98.00;;;;;;6252461;22;20030;-71
2021/10/23 03:27:43;;;;;;;7.13;2.55;;;5.60;98.00;;;;;;6251634;22;20008;-71
2021/10/23 03:30:09;;;;;;;6.43;2.22;;;5.60;98.00;;;;;;6251927;22;20273;-72
2021/10/23 03:32:36;;;;;;;6.18;2.35;;;5.70;98.00;;;;;;6279543;22;20007;-73
2021/10/23 03:35:02;;;;;;;8.63;2.63;;;5.70;98.00;;;;;;6252623;22;20015;-72
2021/10/23 03:37:30;;;;;;;11.90;2.40;;;5.70;98.00;;;;;;6279349;22;20074;-71
2021/10/23 03:39:56;;;;;;;10.60;2.85;;;5.60;98.00;;;;;;6279297;22;20000;-71
2021/10/23 03:42:21;;;;;;;9.40;2.20;;;5.60;98.00;;;;;;6251039;22;20261;-71
2021/10/23 03:44:47;;;;;;;8.00;2.42;;;5.50;98.00;;;;;;6279297;22;20002;-72
2021/10/23 03:47:12;;;;;;;10.25;2.90;;;5.50;98.00;;;;;;6254778;22;20031;-71
2021/10/23 03:49:41;;;;;;;9.00;2.28;;;5.50;98.00;;;;;;6281387;22;19996;-72
2021/10/23 03:52:06;;;;;;;6.03;2.17;;;5.50;98.00;;;;;;6281340;22;20404;-73
2021/10/23 03:54:32;;;;;;;5.38;2.10;;;5.40;98.00;;;;;;6281259;22;20078;-73
2021/10/23 03:56:57;;;;;;;6.25;2.10;;;5.40;98.00;;;;;;6280151;22;20265;-72
2021/10/23 03:59:23;;;;;;;8.07;2.40;;;5.40;98.00;;;;;;6281010;22;20004;-73
2021/10/23 04:01:49;;;;;;;8.10;2.65;;;5.40;98.00;;;;;;6281310;22;19999;-71
2021/10/23 04:04:15;;;;;;;6.45;2.55;;;5.40;98.00;;;;;;6281085;22;19999;-72
2021/10/23 04:06:40;;;;;;;4.30;2.10;;;5.40;98.00;;;;;;6281432;22;20007;-72
2021/10/23 04:09:06;;;;;;;10.18;2.90;;;5.50;98.00;;;;;;6281263;22;20000;-71
2021/10/23 04:11:32;;;;;;;13.48;2.38;;;5.50;98.00;;;;;;6279707;22;20239;-72
2021/10/23 04:13:57;;;;;;;11.10;3.00;;;5.60;98.00;;;;;;6280964;22;20004;-71
2021/10/23 04:16:23;;;;;;;10.73;3.47;;;5.60;98.00;;;;;;6281129;22;20011;-71
2021/10/23 04:18:52;;;;;;;8.75;2.40;;;5.60;98.00;;;;;;6280972;22;20356;-72
2021/10/23 04:21:17;;;;;;;11.07;2.20;;;5.60;98.00;;;;;;6254211;22;20079;-72
2021/10/23 04:23:43;;;;;;;12.23;2.38;;;5.60;98.00;;;;;;6281169;22;20391;-72
2021/10/23 04:26:09;;;;;;;10.88;2.45;;;5.60;98.00;;;;;;6279441;22;20404;-71
2021/10/23 04:28:37;;;;;;;8.80;2.72;;;5.70;98.00;;;;;;6281255;22;20053;-72
2021/10/23 04:31:03;;;;;;;8.00;2.42;;;5.60;98.00;;;;;;6253664;22;20031;-72
2021/10/23 04:33:31;;;;;;;7.00;2.17;;;5.60;98.00;;;;;;6281065;22;20243;-72
2021/10/23 04:35:57;;;;;;;6.65;2.30;;;5.60;98.00;;;;;;6280992;22;20057;-71
2021/10/23 04:38:24;;;;;;;8.50;2.30;;;5.60;98.00;;;;;;6280944;22;20000;-70
2021/10/23 04:40:50;;;;;;;7.18;2.00;;;5.50;98.00;;;;;;6280732;22;20006;-72
2021/10/23 04:43:15;;;;;;;6.57;2.25;;;5.40;98.00;;;;;;6279464;22;19999;-72
2021/10/23 04:45:44;;;;;;;8.32;2.42;;;5.40;98.00;;;;;;6253945;22;20046;-72
2021/10/23 04:48:09;;;;;;;9.60;2.05;;;5.40;98.00;;;;;;6254066;22;20090;-73
2021/10/23 04:50:35;;;;;;;7.43;2.35;;;5.50;98.00;;;;;;6253733;22;20411;-71
2021/10/23 04:53:01;;;;;;;8.38;2.08;;;5.40;98.00;;;;;;6279796;22;20038;-71
2021/10/23 04:55:26;;;;;;;7.05;2.17;;;5.30;98.00;;;;;;6280588;22;20054;-72
2021/10/23 04:57:53;;;;;;;8.90;2.30;;;5.30;98.00;;;;;;6278323;22;20003;-71
2021/10/23 05:00:19;;;;;;;8.30;2.83;;;5.20;98.00;;;;;;6280691;22;20117;-70
2021/10/23 05:02:44;;;;;;;5.50;2.33;;;5.20;98.00;;;;;;6253480;22;20363;-71
2021/10/23 05:05:10;;;;;;;7.40;2.03;;;5.20;98.00;;;;;;6280880;22;20065;-71
2021/10/23 05:07:36;;;;;;;5.38;2.22;;;5.20;98.00;;;;;;6280885;22;20057;-71
2021/10/23 05:10:03;;;;;;;5.80;1.85;;;5.30;98.00;;;;;;6280265;22;20000;-70
2021/10/23 05:12:28;;;;;;;9.18;2.10;;;5.30;98.00;;;;;;6251910;22;20377;-71
2021/10/23 05:14:54;;;;;;;5.82;1.98;;;5.40;98.00;;;;;;6280755;22;20030;-71
2021/10/23 05:17:19;;;;;;;6.65;2.10;;;5.30;98.00;;;;;;6280228;22;20011;-71
2021/10/23 05:19:45;;;;;;;7.45;2.30;;;5.30;98.00;;;;;;6253328;22;20008;-71
2021/10/23 05:22:11;;;;;;;12.50;2.30;;;5.30;98.00;;;;;;6280711;22;20000;-71
2021/10/23 05:24:36;;;;;;;8.02;2.03;;;5.30;98.00;;;;;;6279787;22;20243;-72
2021/10/23 05:27:02;;;;;;;5.57;1.80;;;5.30;98.00;;;;;;6278820;22;19996;-71
2021/10/23 05:29:28;;;;;;;6.88;2.35;;;5.30;98.00;;;;;;6280327;22;20079;-71
2021/10/23 05:31:56;;;;;;;6.28;2.00;;;5.20;98.00;;;;;;6280181;22;20011;-71
2021/10/23 05:34:23;;;;;;;6.65;2.20;;;5.20;98.00;;;;;;6280580;22;20049;-70
2021/10/23 05:36:49;;;;;;;7.60;2.20;;;5.10;98.00;;;;;;6279963;22;20014;-69
2021/10/23 05:39:15;;;;;;;5.60;2.00;;;5.00;98.00;;;;;;6252481;22;20035;-71
2021/10/23 05:41:41;;;;;;;7.28;2.25;;;5.00;98.00;;;;;;6278643;22;19999;-71
2021/10/23 05:44:06;;;;;;;8.45;2.50;;;5.00;98.00;;;;;;6280236;22;19999;-71
2021/10/23 05:46:33;;;;;;;8.75;2.10;;;5.00;98.00;;;;;;6279505;22;20030;-72
2021/10/23 05:48:59;;;;;;;7.75;2.42;;;5.00;98.00;;;;;;6278420;22;20019;-72
2021/10/23 05:51:25;;;;;;;9.48;2.10;;;5.00;98.00;;;;;;6278234;22;20011;-71
2021/10/23 05:53:51;;;;;;;7.25;2.60;;;5.00;98.00;;;;;;6280197;22;20004;-72
2021/10/23 05:56:17;;;;;;;5.55;2.22;;;5.10;98.00;;;;;;6278465;22;20610;-70
2021/10/23 05:58:42;;;;;;;6.68;2.28;;;5.10;98.00;;;;;;6280159;22;20103;-70
2021/10/23 06:01:08;;;;;;;7.20;2.17;;;5.10;98.00;;;;;;6279710;22;20362;-70
2021/10/23 06:03:35;;;;;;;5.63;2.28;;;5.10;98.00;;;;;;6279406;22;20318;-71
2021/10/23 06:06:07;;;;;;;5.90;2.00;;;5.30;98.00;;;;;;6253294;22;20083;-72
2021/10/23 06:08:34;;;;;;;6.40;2.20;;;5.30;98.00;;;;;;6279466;22;20008;-71
2021/10/23 06:11:03;;;;;;;6.63;2.05;;;5.40;98.00;;;;;;6278486;22;20007;-71
2021/10/23 06:13:40;;;;;;;7.78;2.13;;;5.40;98.00;;;;;;6279981;22;19999;-71
2021/10/23 06:16:05;;;;;;;9.73;3.50;;;5.50;98.00;;;;;;6279643;22;20038;-72
2021/10/23 06:18:31;;;;;;;15.13;6.90;;;5.50;98.00;;;;;;6279370;22;20373;-72
2021/10/23 06:20:57;;;;;;;11.88;4.15;;;5.60;98.00;;;;;;6280060;22;20261;-72
2021/10/23 06:23:22;;;;;;;9.60;3.50;;;5.60;98.00;;;;;;6279623;22;20369;-71
2021/10/23 06:25:48;;;;;;;9.68;3.92;;;5.50;98.00;;;;;;6280234;22;20310;-70
2021/10/23 06:28:14;;;;;;;10.82;5.05;;;5.50;98.00;;;;;;6278064;22;20086;-71
2021/10/23 06:30:39;;;;;;;10.95;2.75;;;5.50;98.00;;;;;;6278315;22;20015;-71
2021/10/23 06:33:05;;;;;;;8.95;2.70;;;5.50;98.00;;;;;;6277428;22;20003;-70
2021/10/23 06:35:31;;;;;;;10.35;2.30;;;5.50;98.00;;;;;;6277301;22;20008;-71
2021/10/23 06:37:59;;;;;;;5.32;2.08;;;5.60;98.00;;;;;;6277320;22;20480;-70
2021/10/23 06:40:25;;;;;;;10.52;4.90;;;5.60;98.00;;;;;;6278013;22;20000;-70
2021/10/23 06:42:51;;;;;;;12.00;3.97;;;5.60;98.00;;;;;;6275763;22;20378;-70
2021/10/23 06:45:17;;;;;;;7.57;2.30;;;5.70;98.00;;;;;;6250486;22;20269;-71
2021/10/23 06:47:43;;;;;;;8.73;2.30;;;5.80;98.00;;;;;;6250164;22;20011;-72
2021/10/23 06:50:10;;;;;;;5.05;1.88;;;5.90;98.00;;;;;;6277262;22;20243;-71
2021/10/23 06:52:36;;;;;;;4.65;2.05;;;6.00;98.00;;;;;;6277309;22;20057;-72
2021/10/23 06:55:04;;;;;;;7.57;2.10;;;6.10;98.00;;;;;;6277321;22;20071;-72
2021/10/23 06:57:30;;;;;;;5.15;1.88;;;6.20;98.00;;;;;;6276075;22;20007;-72
2021/10/23 06:59:55;;;;;;;5.65;1.80;;;6.30;98.00;;;;;;6277088;22;20362;-72
2021/10/23 07:02:24;;;;;;;10.07;2.35;;;6.40;98.00;;;;;;6252637;22;20361;-72
2021/10/23 07:04:49;;;;;;;8.40;2.20;;;6.40;98.00;;;;;;6279149;22;20000;-71
2021/10/23 07:07:15;;;;;;;7.38;2.20;;;6.50;98.00;;;;;;6279150;22;20058;-71
2021/10/23 07:09:41;;;;;;;5.28;2.00;;;6.50;98.00;;;;;;6278803;22;20004;-72
2021/10/23 07:12:06;;;;;;;5.93;2.25;;;6.50;98.00;;;;;;6277729;22;20003;-71
2021/10/23 07:14:32;;;;;;;8.90;2.17;;;6.60;98.00;;;;;;6279576;22;20031;-72
2021/10/23 07:16:58;;;;;;;7.28;2.10;;;6.70;98.00;;;;;;6278861;22;20027;-72
2021/10/23 07:19:23;;;;;;;6.68;1.70;;;6.90;98.00;;;;;;6279035;22;20365;-73
2021/10/23 07:21:49;;;;;;;6.22;2.13;;;7.00;98.00;;;;;;6281037;22;20019;-72
2021/10/23 07:24:17;;;;;;;6.03;2.08;;;7.10;98.00;;;;;;6254582;22;20050;-71
2021/10/23 07:26:43;;;;;;;6.43;2.03;;;7.30;98.00;;;;;;6280253;22;20020;-73
2021/10/23 07:29:09;;;;;;;8.13;2.00;;;7.30;98.00;;;;;;6281200;22;20011;-72
2021/10/23 07:31:35;;;;;;;6.40;1.75;;;7.30;98.00;;;;;;6281144;22;20004;-72
2021/10/23 07:34:02;;;;;;;6.15;1.70;;;7.40;98.00;;;;;;6281595;22;20401;-71
2021/10/23 07:36:29;;;;;;;5.03;1.83;;;7.60;98.00;;;;;;6280958;22;20026;-72
2021/10/23 07:38:54;;;;;;;6.20;2.65;;;7.70;98.00;;;;;;6281192;22;20007;-72
2021/10/23 07:41:23;;;;;;;8.15;2.47;;;7.80;98.00;;;;;;6279839;22;19999;-72
2021/10/23 07:43:51;;;;;;;7.43;2.80;;;8.00;98.00;;;;;;6280152;22;20003;-72
2021/10/23 07:46:17;;;;;;;7.13;1.80;;;8.20;97.50;;;;;;6281085;22;20078;-71
2021/10/23 07:48:43;;;;;;;5.55;2.03;;;8.40;97.20;;;;;;6280081;22;20028;-72
2021/10/23 07:51:09;;;;;;;6.45;2.50;;;8.60;96.80;;;;;;6280979;22;20003;-70
2021/10/23 07:53:35;;;;;;;8.55;2.17;;;9.00;96.10;;;;;;6253651;22;20273;-71
2021/10/23 07:56:00;;;;;;;8.20;2.63;;;9.20;95.40;;;;;;6279103;22;20004;-72
2021/10/23 07:58:27;;;;;;;5.50;2.10;;;9.40;94.10;;;;;;6279877;22;20003;-72
2021/10/23 08:00:52;;;;;;;5.78;2.10;;;9.60;93.00;;;;;;6280061;22;20447;-71
2021/10/23 08:03:18;;;;;;;6.93;1.95;;;9.80;90.30;;;;;;6279886;22;19996;-72
2021/10/23 08:05:44;;;;;;;8.70;2.78;;;10.30;87.80;;;;;;6280108;22;20265;-71
2021/10/23 08:08:09;;;;;;;5.53;1.90;;;10.60;86.70;;;;;;6279804;22;20008;-70
2021/10/23 08:10:36;;;;;;;6.72;2.00;;;10.90;86.80;;;;;;6280443;22;20004;-72
2021/10/23 08:13:04;;;;;;;5.70;1.77;;;10.80;86.10;;;;;;6278083;22;20003;-72
2021/10/23 08:15:31;;;;;;;8.27;2.25;;;10.40;86.90;;;;;;6279704;22;20389;-72
2021/10/23 08:17:57;;;;;;;6.95;2.10;;;10.00;88.00;;;;;;6279382;22;20066;-72
2021/10/23 08:20:23;;;;;;;6.32;1.70;;;9.80;87.70;;;;;;6279286;22;20011;-71
2021/10/23 08:22:49;;;;;;;5.07;1.80;;;10.00;87.30;;;;;;6279424;22;20000;-71
2021/10/23 08:25:14;;;;;;;8.10;2.10;;;10.20;87.40;;;;;;6278737;22;20034;-71
2021/10/23 08:27:44;;;;;;;8.82;3.75;;;10.40;86.60;;;;;;6278494;22;20003;-71
2021/10/23 08:30:14;;;;;;;8.50;2.80;;;10.40;85.50;;;;;;6279198;22;20099;-71
2021/10/23 08:32:42;;;;;;;5.82;2.78;;;10.60;85.20;;;;;;6277363;22;20008;-71
2021/10/23 08:35:09;;;;;;;6.88;3.00;;;10.60;85.10;;;;;;6277424;22;20081;-72
2021/10/23 08:37:36;;;;;;;8.52;2.97;;;10.60;85.40;;;;;;6278295;22;20397;-72
2021/10/23 08:40:04;;;;;;;7.90;2.80;;;10.60;84.60;;;;;;6251060;22;20090;-71
2021/10/23 08:42:31;;;;;;;7.57;2.83;;;10.70;85.30;;;;;;6277261;22;20057;-72
2021/10/23 08:44:59;;;;;;;7.78;2.72;;;11.20;85.40;;;;;;6251698;22;20012;-72
2021/10/23 08:47:27;;;;;;;8.38;2.33;;;13.00;81.00;;;;;;6278856;22;20079;-70
2021/10/23 08:49:54;;;;;;;8.77;2.15;;;14.80;76.20;;;;;;6278219;22;20004;-71
2021/10/23 08:52:28;;;;;;;8.20;1.90;;;15.70;72.20;;;;;;6278988;22;19999;-71
2021/10/23 08:54:55;;;;;;;7.00;1.95;;;15.60;71.90;;;;;;6279010;22;20000;-71
2021/10/23 08:57:26;;;;;;;6.90;2.25;;;15.20;71.90;;;;;;6248908;22;20306;-71
2021/10/23 08:59:56;;;;;;;7.20;1.60;;;14.90;74.00;;;;;;6278109;22;19995;-71
2021/10/23 09:02:24;;;;;;;8.30;2.85;;;14.90;73.20;;;;;;6277720;22;20477;-71
2021/10/23 09:04:54;;;;;;;7.95;1.90;;;15.30;73.20;;;;;;6277628;22;20083;-71
2021/10/23 09:07:23;;;;;;;10.93;2.83;;;15.30;72.90;;;;;;6251376;22;20500;-72
2021/10/23 09:09:53;;;;;;;10.32;3.17;;;15.50;73.40;;;;;;6277465;22;20676;-72
2021/10/23 09:12:24;;;;;;;9.38;2.60;;;16.10;72.10;;;;;;6276544;22;20421;-72
2021/10/23 09:15:13;;;;;;;6.30;1.90;;;16.40;71.30;;;;;;6279022;22;20352;-71
2021/10/23 09:17:42;;;;;;;5.68;1.80;;;16.20;69.70;;;;;;6252729;22;20046;-71
2021/10/23 09:20:13;;;;;;;6.07;1.85;;;15.20;71.80;;;;;;6253226;22;19999;-70
2021/10/23 09:22:42;;;;;;;8.35;1.70;;;14.60;74.70;;;;;;6280288;22;19995;-71
2021/10/23 09:25:24;;;;;;;6.28;1.70;;;15.20;73.30;;;;;;6253258;22;20046;-71
2021/10/23 09:28:05;;;;;;;6.45;1.92;;;15.60;73.10;;;;;;6251314;22;20007;-71
2021/10/23 09:30:43;;;;;;;8.35;2.30;;;15.70;72.50;;;;;;6280135;22;20304;-72
2021/10/23 09:33:21;;;;;;;5.60;2.08;;;14.80;73.70;;;;;;6279871;22;20489;-70
2021/10/23 09:35:49;;;;;;;14.85;5.85;;;13.60;76.60;;;;;;6279673;22;20003;-71
2021/10/23 09:38:17;;;;;;;10.27;2.83;;;12.80;78.80;;;;;;6252968;22;20003;-70
2021/10/23 09:40:48;;;;;;;8.30;2.47;;;12.40;81.00;;;;;;6278868;22;20354;-70
2021/10/23 09:43:17;;;;;;;10.18;2.60;;;11.90;81.50;;;;;;6277672;22;20088;-70
2021/10/23 09:46:01;;;;;;;9.00;2.85;;;11.50;83.10;;;;;;6279350;22;19999;-69
2021/10/23 09:48:50;;;;;;;7.60;2.53;;;11.50;84.30;;;;;;6280106;22;20049;-69
2021/10/23 09:51:24;;;;;;;7.93;2.70;;;12.90;80.90;;;;;;6279127;22;20018;-70
2021/10/23 09:53:53;;;;;;;7.40;2.15;;;12.70;79.00;;;;;;6278627;22;20000;-70
2021/10/23 09:56:35;;;;;;;5.38;2.10;;;12.00;81.20;;;;;;6275196;22;20000;-70
2021/10/23 09:59:07;;;;;;;5.82;2.20;;;11.30;83.50;;;;;;6252438;22;20028;-70
2021/10/23 10:01:44;;;;;;;7.75;2.80;;;11.30;84.70;;;;;;6279307;22;20066;-70
2021/10/23 10:04:16;;;;;;;9.00;2.40;;;11.50;84.60;;;;;;6278791;22;20000;-70
2021/10/23 10:06:52;;;;;;;7.28;2.30;;;11.70;83.50;;;;;;6278785;22;20034;-71
2021/10/23 10:09:26;;;;;;;8.13;2.55;;;11.30;84.40;;;;;;6279144;22;20007;-70
2021/10/23 10:11:54;;;;;;;7.55;2.80;;;10.80;85.60;;;;;;6277257;22;20432;-73
2021/10/23 10:14:24;;;;;;;9.38;3.40;;;10.40;86.90;;;;;;6279390;22;20015;-72
2021/10/23 10:16:58;;;;;;;9.00;3.83;;;10.20;87.90;;;;;;6278787;22;20039;-72
2021/10/23 10:19:27;;;;;;;10.23;3.08;;;10.10;88.40;;;;;;6278067;22;20003;-72
2021/10/23 10:21:54;;;;;;;9.60;3.67;;;10.30;88.30;;;;;;6278781;22;20000;-71
2021/10/23 10:24:23;;;;;;;5.40;2.40;;;11.70;85.90;;;;;;6279255;22;20011;-72
2021/10/23 10:27:03;;;;;;;6.20;2.08;;;12.60;81.90;;;;;;6277523;22;19999;-72
2021/10/23 10:29:51;;;;;;;8.18;2.17;;;13.80;79.20;;;;;;6278632;22;20000;-72
2021/10/23 10:32:41;;;;;;;10.88;2.40;;;15.30;74.90;;;;;;6279248;22;20004;-72
2021/10/23 10:38:13;;;;;;;5.07;1.92;;;15.10;73.40;;;;;;6289594;22;20011;-71
2021/10/23 10:43:12;;;;;;;7.20;2.60;;;16.30;72.70;;;;;;6277487;22;20058;-70
2021/10/23 10:45:42;;;;;;;5.20;1.90;;;16.70;70.80;;;;;;6278433;22;20074;-72
2021/10/23 10:48:21;;;;;;;5.32;1.92;;;17.00;70.60;;;;;;6279240;22;20004;-71
2021/10/23 10:50:55;;;;;;;4.20;1.20;;;17.10;69.60;;;;;;6278316;22;20004;-71
2021/10/23 10:53:26;;;;;;;5.22;1.50;;;16.90;67.80;;;;;;6278654;22;19999;-72
2021/10/23 10:55:54;;;;;;;3.40;1.10;;;16.80;68.40;;;;;;6278762;22;20365;-72
2021/10/23 10:58:39;;;;;;;3.38;1.20;;;16.90;65.50;;;;;;6277726;22;20004;-71
2021/10/23 11:01:22;;;;;;;7.70;1.50;;;16.80;67.40;;;;;;6278656;22;19999;-72
2021/10/23 11:04:05;;;;;;;4.78;1.77;;;17.20;66.90;;;;;;6251163;22;20007;-72
2021/10/23 11:06:32;;;;;;;6.13;1.83;;;16.90;66.80;;;;;;6278281;22;20014;-71
2021/10/23 11:09:16;;;;;;;6.20;1.65;;;16.10;69.70;;;;;;6251504;22;20008;-72
2021/10/23 11:11:50;;;;;;;5.13;1.95;;;14.70;70.60;;;;;;6277275;22;20004;-75
2021/10/23 11:14:23;;;;;;;4.93;1.70;;;13.70;72.50;;;;;;6250756;22;20094;-76
2021/10/23 11:17:00;;;;;;;5.03;1.70;;;12.90;74.30;;;;;;6275011;22;20011;-75
2021/10/23 11:19:30;;;;;;;6.57;3.05;;;12.90;74.90;;;;;;6213995;23;20013;-75
2021/10/23 11:21:58;;;;;;;8.15;2.33;;;12.90;75.70;;;;;;6214862;23;20033;-75
2021/10/23 11:24:25;;;;;;;5.88;1.77;;;13.40;75.40;;;;;;6215659;23;20275;-76
2021/10/23 11:26:54;;;;;;;5.82;1.73;;;14.00;75.60;;;;;;6212874;23;20043;-76
2021/10/23 11:29:27;;;;;;;4.53;1.50;;;15.20;71.10;;;;;;6214175;23;20016;-75
2021/10/23 11:31:54;;;;;;;5.07;1.63;;;15.60;69.80;;;;;;6213426;23;20095;-75
2021/10/23 11:34:23;;;;;;;5.22;1.65;;;15.30;70.60;;;;;;6216393;23;20012;-75
2021/10/23 11:37:11;;;;;;;5.32;1.60;;;15.00;70.20;;;;;;6214365;23;20011;-75
2021/10/23 11:39:38;;;;;;;5.43;1.40;;;15.30;70.60;;;;;;6213266;23;20005;-76
2021/10/23 11:42:23;;;;;;;4.65;1.20;;;16.20;68.80;;;;;;6212097;23;20008;-76
2021/10/23 11:45:13;;;;;;;11.70;2.30;;;15.80;67.90;;;;;;6213414;23;20015;-76
2021/10/23 11:47:39;;;;;;;3.80;1.52;;;16.20;65.60;;;;;;6201304;23;20032;-76
2021/10/23 11:50:07;;;;;;;2.78;0.93;;;16.10;66.60;;;;;;6213768;23;19997;-77
2021/10/23 11:52:34;;;;;;;5.95;1.10;;;16.40;63.40;;;;;;6214415;23;20015;-75
2021/10/23 11:55:05;;;;;;;2.83;1.10;;;16.40;64.10;;;;;;6213808;23;20016;-78
2021/10/23 11:57:43;;;;;;;3.50;1.00;;;15.10;64.20;;;;;;6213981;23;20008;-77
2021/10/23 12:00:16;;;;;;;3.10;1.17;;;14.10;66.50;;;;;;6214956;23;20009;-75
2021/10/23 12:02:55;;;;;;;4.20;1.10;;;13.40;68.50;;;;;;6215241;23;20259;-75
2021/10/23 12:05:36;;;;;;;3.50;1.20;;;12.80;69.80;;;;;;6214246;23;20001;-75
2021/10/23 12:08:18;;;;;;;2.22;1.02;;;12.40;70.50;;;;;;6216156;23;20005;-75
2021/10/23 12:11:05;;;;;;;6.53;1.73;;;12.60;72.60;;;;;;6215259;23;20013;-77
2021/10/23 12:13:51;;;;;;;4.90;1.20;;;13.10;69.20;;;;;;6216331;23;20058;-78
2021/10/23 12:16:34;;;;;;;1.98;0.80;;;13.00;69.90;;;;;;6215317;23;20062;-77
2021/10/23 12:19:20;;;;;;;12.63;1.63;;;14.10;67.80;;;;;;6270750;22;20026;-76
2021/10/23 12:22:05;;;;;;;7.35;1.45;;;15.30;64.90;;;;;;6277128;22;20011;-76
2021/10/23 12:24:35;;;;;;;5.78;1.60;;;16.00;64.30;;;;;;6279932;22;20003;-75
2021/10/23 12:27:18;;;;;;;4.55;1.17;;;15.50;63.20;;;;;;6251733;22;20101;-75
2021/10/23 12:29:55;;;;;;;3.67;1.17;;;15.90;63.80;;;;;;6281097;22;20011;-75
2021/10/23 12:32:33;;;;;;;3.58;1.30;;;16.10;65.20;;;;;;6280107;22;20314;-75
2021/10/23 12:35:00;;;;;;;4.70;1.20;;;16.50;64.40;;;;;;6280853;22;20038;-74
2021/10/23 12:37:26;;;;;;;5.05;1.42;;;16.80;62.60;;;;;;6254550;22;20010;-74
2021/10/23 12:40:03;;;;;;;4.95;1.73;;;16.20;63.40;;;;;;6253704;22;20004;-75
2021/10/23 12:42:32;;;;;;;4.28;1.42;;;15.10;67.60;;;;;;6279368;22;20000;-74
2021/10/23 12:44:58;;;;;;;4.70;1.80;;;14.50;69.70;;;;;;6280907;22;20023;-74
2021/10/23 12:47:24;;;;;;;6.93;1.92;;;13.70;72.20;;;;;;6279931;22;20011;-74
2021/10/23 12:49:49;;;;;;;7.15;2.10;;;13.10;72.70;;;;;;6253587;22;20008;-75
2021/10/23 12:52:15;;;;;;;5.60;1.83;;;12.50;73.90;;;;;;6280504;22;20003;-74
2021/10/23 12:54:41;;;;;;;3.90;1.65;;;12.30;75.20;;;;;;6253605;22;20035;-74
2021/10/23 12:57:06;;;;;;;5.07;1.67;;;12.70;74.50;;;;;;6278056;22;20012;-74
2021/10/23 12:59:32;;;;;;;7.35;1.63;;;12.90;74.60;;;;;;6251182;22;20007;-75
2021/10/23 13:01:58;;;;;;;5.97;1.77;;;13.50;72.60;;;;;;6278409;22;19996;-75
2021/10/23 13:04:23;;;;;;;7.90;1.77;;;14.20;70.00;;;;;;6278153;22;20243;-75